Time;durP1;ratioP1;P1;durP2;ratioP2;P2;SDS_P1;SDS_P2;PMS_P1;PMS_P2;Temp;Humidity;BMP_temperature;BMP_pressure;BME280_temperature;BME280_humidity;BME280_pressure;Samples;Min_cycle;Max_cycle;Signal;HPM_P1;HPM_P2
2023/09/21 00:01:38;;;;;;;3.90;2.50;;;;;;;17.39;100.00;97183.81;5053507;28;20209;-74
2023/09/21 00:04:05;;;;;;;4.57;2.77;;;;;;;17.45;100.00;97177.28;5053457;28;20290;-74
2023/09/21 00:06:31;;;;;;;4.23;3.30;;;;;;;17.38;100.00;97182.16;5052912;28;20660;-74
2023/09/21 00:08:57;;;;;;;7.17;2.90;;;;;;;17.39;100.00;97169.53;5052810;28;20649;-74
2023/09/21 00:11:24;;;;;;;4.23;3.03;;;;;;;17.41;100.00;97170.09;5052688;28;20201;-74
2023/09/21 00:13:50;;;;;;;5.03;3.00;;;;;;;17.44;100.00;97173.00;5052994;28;20668;-74
2023/09/21 00:16:18;;;;;;;5.83;3.07;;;;;;;17.50;100.00;97169.19;5053011;28;20209;-74
2023/09/21 00:18:45;;;;;;;5.93;2.90;;;;;;;17.45;100.00;97163.88;5053242;28;20232;-74
2023/09/21 00:21:12;;;;;;;4.10;2.90;;;;;;;17.37;100.00;97171.72;5052694;28;20232;-74
2023/09/21 00:23:39;;;;;;;5.10;2.67;;;;;;;17.35;100.00;97166.63;5053209;28;20296;-74
2023/09/21 00:26:07;;;;;;;5.10;2.80;;;;;;;17.34;100.00;97162.34;5052944;28;20213;-74
2023/09/21 00:28:33;;;;;;;4.63;2.80;;;;;;;17.28;100.00;97160.75;5052947;28;20229;-74
2023/09/21 00:31:02;;;;;;;4.13;2.57;;;;;;;17.25;100.00;97153.28;5053148;28;20297;-74
2023/09/21 00:33:30;;;;;;;4.07;2.93;;;;;;;17.18;100.00;97152.81;5053145;28;20221;-74
2023/09/21 00:35:58;;;;;;;4.60;3.20;;;;;;;17.20;100.00;97147.16;5052901;28;20680;-74
2023/09/21 00:38:25;;;;;;;7.83;3.87;;;;;;;17.12;100.00;97140.50;5052783;28;20231;-74
2023/09/21 00:40:57;;;;;;;8.33;3.70;;;;;;;17.09;100.00;97138.38;5053123;28;20221;-74
2023/09/21 00:43:25;;;;;;;10.27;3.90;;;;;;;17.07;100.00;97135.19;5053190;28;20197;-74
2023/09/21 00:45:57;;;;;;;9.87;4.30;;;;;;;17.09;100.00;97133.00;5053079;28;20263;-74
2023/09/21 00:48:33;;;;;;;7.37;3.67;;;;;;;17.14;100.00;97138.34;5056026;28;20229;-74
2023/09/21 00:51:00;;;;;;;5.97;3.63;;;;;;;17.20;100.00;97128.34;5056857;28;20193;-74
2023/09/21 00:53:29;;;;;;;4.33;3.07;;;;;;;17.27;100.00;97126.13;5056514;28;20205;-74
2023/09/21 00:55:58;;;;;;;4.77;3.40;;;;;;;17.24;100.00;97132.06;5056451;28;20682;-74
2023/09/21 00:58:28;;;;;;;5.53;3.40;;;;;;;17.27;100.00;97120.75;5056353;28;20237;-74
2023/09/21 01:00:56;;;;;;;4.70;3.00;;;;;;;17.28;100.00;97120.47;5056586;28;20201;-74
2023/09/21 01:03:27;;;;;;;4.73;3.10;;;;;;;17.24;100.00;97119.44;5056547;28;20227;-74
2023/09/21 01:05:54;;;;;;;4.93;3.43;;;;;;;17.23;100.00;97131.25;5056253;28;20656;-74
2023/09/21 01:08:28;;;;;;;3.53;2.50;;;;;;;17.22;100.00;97124.28;5056077;28;20785;-74
2023/09/21 01:10:56;;;;;;;7.53;3.17;;;;;;;17.11;100.00;97127.34;5056147;28;20640;-74
2023/09/21 01:13:25;;;;;;;4.20;3.03;;;;;;;17.08;100.00;97117.97;5056335;28;20211;-74
2023/09/21 01:16:02;;;;;;;6.73;3.20;;;;;;;17.17;100.00;97110.91;5056299;28;20216;-74
2023/09/21 01:18:29;;;;;;;5.80;3.30;;;;;;;17.16;100.00;97120.06;5056617;28;20571;-74
2023/09/21 01:21:00;;;;;;;5.43;3.00;;;;;;;17.14;100.00;97111.47;5056061;28;20205;-74
2023/09/21 01:23:53;;;;;;;5.23;3.20;;;;;;;17.11;100.00;97111.25;5055926;28;20629;-74
2023/09/21 01:26:20;;;;;;;5.83;3.37;;;;;;;17.08;100.00;97107.25;5052017;28;20215;-74
2023/09/21 01:28:47;;;;;;;6.87;3.40;;;;;;;17.08;100.00;97111.78;5055664;28;20676;-74
2023/09/21 01:31:14;;;;;;;5.63;2.93;;;;;;;17.14;100.00;97116.84;5056007;28;20330;-74
2023/09/21 01:33:41;;;;;;;5.93;3.27;;;;;;;17.19;100.00;97116.78;5055955;28;20205;-74
2023/09/21 01:36:08;;;;;;;5.03;2.97;;;;;;;17.20;100.00;97117.59;5055944;28;20209;-74
2023/09/21 01:38:38;;;;;;;3.27;2.63;;;;;;;17.15;100.00;97109.59;5055778;28;20228;-74
2023/09/21 01:41:06;;;;;;;4.10;2.97;;;;;;;17.15;100.00;97098.84;5055834;28;20213;-74
2023/09/21 01:43:33;;;;;;;4.33;2.93;;;;;;;17.14;100.00;97098.03;5055849;28;20237;-74
2023/09/21 01:46:00;;;;;;;4.07;2.80;;;;;;;17.12;100.00;97092.16;5055677;28;20202;-74
2023/09/21 01:48:27;;;;;;;4.27;2.93;;;;;;;17.10;100.00;97093.53;5055546;28;20231;-74
2023/09/21 01:50:57;;;;;;;4.30;2.47;;;;;;;17.08;100.00;97096.50;5055647;28;20296;-74
2023/09/21 01:53:24;;;;;;;5.67;2.87;;;;;;;17.17;100.00;97099.34;5055651;28;20208;-74
2023/09/21 01:55:51;;;;;;;2.70;2.20;;;;;;;17.00;100.00;97089.03;5055575;28;20221;-74
2023/09/21 01:58:23;;;;;;;5.47;2.83;;;;;;;17.00;100.00;97089.03;5054685;28;20240;-74
2023/09/21 02:00:49;;;;;;;5.23;2.83;;;;;;;16.99;100.00;97095.50;5055429;28;20199;-74
2023/09/21 02:03:20;;;;;;;3.47;2.80;;;;;;;16.95;100.00;97086.41;5055453;28;20201;-74
2023/09/21 02:05:47;;;;;;;4.20;3.00;;;;;;;16.94;100.00;97082.13;5055302;28;20274;-74
2023/09/21 02:08:17;;;;;;;6.27;2.90;;;;;;;16.92;100.00;97084.28;5054968;28;20240;-74
2023/09/21 02:10:43;;;;;;;4.97;2.60;;;;;;;16.92;100.00;97078.91;5055195;28;20308;-74
2023/09/21 02:13:09;;;;;;;4.83;2.97;;;;;;;16.97;100.00;97067.34;5055192;28;20212;-74
2023/09/21 02:15:38;;;;;;;3.80;3.07;;;;;;;17.00;100.00;97064.88;5054944;28;20209;-74
2023/09/21 02:18:05;;;;;;;4.90;2.50;;;;;;;17.03;100.00;97067.00;5055096;28;20225;-74
2023/09/21 02:20:34;;;;;;;3.97;2.77;;;;;;;17.06;100.00;97063.75;5055051;28;20201;-74
2023/09/21 02:23:02;;;;;;;4.17;2.80;;;;;;;16.97;100.00;97057.38;5054921;28;20232;-74
2023/09/21 02:25:31;;;;;;;8.27;3.13;;;;;;;16.95;100.00;97048.81;5054957;28;20205;-74
2023/09/21 02:27:58;;;;;;;3.23;2.60;;;;;;;16.89;100.00;97049.97;5054923;28;20221;-74
2023/09/21 02:30:25;;;;;;;4.30;2.87;;;;;;;16.91;100.00;97047.78;5054869;28;20225;-74
2023/09/21 02:32:54;;;;;;;4.17;3.00;;;;;;;16.95;100.00;97054.19;5054573;28;20216;-74
2023/09/21 02:35:24;;;;;;;5.17;3.10;;;;;;;16.86;100.00;97038.97;5054820;28;20205;-74
2023/09/21 02:37:52;;;;;;;5.33;3.83;;;;;;;16.84;100.00;97039.28;5054165;28;20708;-74
2023/09/21 02:40:21;;;;;;;5.77;3.67;;;;;;;16.88;100.00;97032.22;5054746;28;20205;-74
2023/09/21 02:42:49;;;;;;;5.13;3.67;;;;;;;16.90;100.00;97034.63;5054733;28;20354;-74
2023/09/21 02:45:18;;;;;;;4.80;3.23;;;;;;;16.86;100.00;97038.97;5054744;28;20205;-74
2023/09/21 02:47:45;;;;;;;4.80;3.37;;;;;;;16.89;100.00;97044.59;5054548;28;20278;-74
2023/09/21 02:50:20;;;;;;;5.30;3.87;;;;;;;16.87;100.00;97040.59;5054448;28;20259;-74
2023/09/21 02:52:48;;;;;;;5.67;3.70;;;;;;;16.85;100.00;97034.69;5054221;28;20189;-74
2023/09/21 02:55:17;;;;;;;3.70;3.30;;;;;;;16.82;100.00;97030.69;5054490;28;20205;-74
2023/09/21 02:57:49;;;;;;;4.40;3.50;;;;;;;16.84;100.00;97025.84;5054187;28;20323;-74
2023/09/21 03:00:21;;;;;;;7.67;3.77;;;;;;;16.79;100.00;97028.56;5053790;28;20296;-74
2023/09/21 03:02:48;;;;;;;4.57;3.30;;;;;;;16.86;100.00;97023.69;5054313;28;20189;-74
2023/09/21 03:05:18;;;;;;;6.97;3.67;;;;;;;16.90;100.00;97024.72;5054184;28;20300;-74
2023/09/21 03:07:45;;;;;;;7.23;3.50;;;;;;;16.95;100.00;97021.16;5054880;28;20225;-74
2023/09/21 03:10:13;;;;;;;6.43;3.60;;;;;;;16.96;100.00;97028.94;5053963;28;20316;-74
2023/09/21 03:12:39;;;;;;;6.43;3.90;;;;;;;17.00;100.00;97027.28;5055154;28;20651;-74
2023/09/21 03:15:13;;;;;;;3.80;3.47;;;;;;;17.02;100.00;97029.69;5054044;28;20216;-74
2023/09/21 03:17:41;;;;;;;6.60;3.90;;;;;;;17.04;100.00;97025.66;5054430;28;20279;-74
2023/09/21 03:20:28;;;;;;;5.77;3.70;;;;;;;17.01;100.00;97025.41;5053868;28;20201;-74
2023/09/21 03:22:58;;;;;;;3.63;3.33;;;;;;;17.03;100.00;97028.59;5053535;28;20629;-74
2023/09/21 03:25:28;;;;;;;4.00;3.23;;;;;;;16.94;100.00;97022.25;5053590;28;20205;-74
2023/09/21 03:27:56;;;;;;;6.33;3.27;;;;;;;16.95;100.00;97015.78;5053768;28;20221;-74
2023/09/21 03:30:24;;;;;;;3.93;3.07;;;;;;;16.93;100.00;97008.06;5053778;28;20229;-74
2023/09/21 03:32:52;;;;;;;3.87;3.30;;;;;;;16.89;100.00;97008.88;5053424;28;20580;-74
2023/09/21 03:35:20;;;;;;;5.17;3.80;;;;;;;16.87;100.00;97008.38;5053436;28;20205;-74
2023/09/21 03:37:47;;;;;;;6.33;3.90;;;;;;;16.94;100.00;97009.66;5053379;28;20225;-74
2023/09/21 03:40:14;;;;;;;7.23;3.70;;;;;;;16.94;100.00;97001.59;5053377;28;20220;-74
2023/09/21 03:42:42;;;;;;;7.30;4.20;;;;;;;16.94;100.00;97006.97;5053532;28;20210;-74
2023/09/21 03:45:11;;;;;;;7.00;3.50;;;;;;;16.96;100.00;97007.47;5053593;28;20293;-74
2023/09/21 03:47:37;;;;;;;5.53;3.77;;;;;;;17.04;100.00;97004.16;5053343;28;20235;-74
2023/09/21 03:50:06;;;;;;;5.97;3.87;;;;;;;17.05;100.00;97011.13;5053247;28;20228;-74
2023/09/21 03:52:33;;;;;;;5.17;3.67;;;;;;;17.05;100.00;97007.66;5052798;28;20775;-74
2023/09/21 03:55:00;;;;;;;4.93;3.90;;;;;;;17.07;100.00;96997.41;5053391;28;20209;-74
2023/09/21 03:57:27;;;;;;;8.20;3.53;;;;;;;17.08;100.00;96993.63;5052630;28;20232;-74
2023/09/21 03:59:55;;;;;;;4.17;3.60;;;;;;;17.07;100.00;96997.41;5053483;28;20185;-74
2023/09/21 04:02:22;;;;;;;5.03;3.47;;;;;;;17.04;100.00;96993.41;5053157;28;20245;-74
2023/09/21 04:04:50;;;;;;;5.90;3.23;;;;;;;17.01;100.00;96987.81;5053074;28;20205;-74
2023/09/21 04:07:17;;;;;;;4.67;3.40;;;;;;;17.05;100.00;96994.22;5052887;28;20734;-74
2023/09/21 04:09:45;;;;;;;3.97;3.27;;;;;;;17.00;100.00;96989.69;5053094;28;20229;-74
2023/09/21 04:12:12;;;;;;;5.67;3.30;;;;;;;17.05;100.00;96992.34;5052901;28;20372;-74
2023/09/21 04:14:38;;;;;;;5.67;3.27;;;;;;;16.96;100.00;96995.94;5053102;28;20209;-74
2023/09/21 04:17:05;;;;;;;5.17;3.00;;;;;;;17.02;100.00;96992.91;5053011;28;20205;-74
2023/09/21 04:19:31;;;;;;;4.53;3.17;;;;;;;17.01;100.00;96993.19;5052635;28;20668;-74
2023/09/21 04:21:58;;;;;;;4.00;2.90;;;;;;;17.04;100.00;96992.59;5053237;28;20668;-74
2023/09/21 04:24:24;;;;;;;6.33;2.90;;;;;;;17.05;100.00;96978.91;5057111;28;20208;-74
2023/09/21 04:26:50;;;;;;;3.93;2.73;;;;;;;17.11;100.00;96975.09;5056956;28;20209;-74
2023/09/21 04:29:17;;;;;;;3.07;2.77;;;;;;;17.06;100.00;96968.97;5056549;28;20229;-74
2023/09/21 04:31:43;;;;;;;3.90;2.80;;;;;;;17.05;100.00;96965.47;5056585;28;20201;-74
2023/09/21 04:34:10;;;;;;;4.27;2.70;;;;;;;17.09;100.00;96966.50;5056966;28;20208;-74
2023/09/21 04:36:36;;;;;;;4.10;2.90;;;;;;;17.11;100.00;96966.22;5056435;28;20541;-74
2023/09/21 04:39:02;;;;;;;2.70;2.50;;;;;;;17.10;100.00;96964.63;5056698;28;20316;-74
2023/09/21 04:41:30;;;;;;;4.53;2.50;;;;;;;17.05;100.00;96970.06;5056028;28;20288;-74
2023/09/21 04:43:56;;;;;;;4.67;2.90;;;;;;;17.02;100.00;96971.44;5056100;28;20201;-74
2023/09/21 04:46:23;;;;;;;5.83;3.27;;;;;;;17.01;100.00;96972.50;5056356;28;20680;-74
2023/09/21 04:48:49;;;;;;;5.97;3.10;;;;;;;17.03;100.00;96964.97;5056303;28;20221;-74
2023/09/21 04:51:16;;;;;;;5.00;3.23;;;;;;;17.06;100.00;96969.75;5057175;28;20225;-74
2023/09/21 04:53:42;;;;;;;3.87;2.70;;;;;;;17.06;100.00;96964.38;5056523;28;20211;-74
2023/09/21 04:56:09;;;;;;;6.73;3.10;;;;;;;17.08;100.00;96959.53;5056386;28;20208;-74
2023/09/21 04:58:35;;;;;;;5.23;3.00;;;;;;;17.09;100.00;96961.13;5056205;28;20306;-74
2023/09/21 05:01:09;;;;;;;3.37;2.83;;;;;;;17.08;100.00;96964.09;5056324;28;20232;-74
2023/09/21 05:03:35;;;;;;;4.27;2.80;;;;;;;17.11;100.00;96958.97;5055824;28;20668;-74
2023/09/21 05:06:02;;;;;;;3.00;2.57;;;;;;;17.14;100.00;96965.66;5055679;28;20204;-74
2023/09/21 05:08:29;;;;;;;3.63;2.77;;;;;;;17.11;100.00;96963.53;5055580;28;20724;-74
2023/09/21 05:10:55;;;;;;;4.33;2.87;;;;;;;17.05;100.00;96960.09;5055803;28;20220;-74
2023/09/21 05:13:22;;;;;;;2.73;2.43;;;;;;;17.09;100.00;96963.81;5055894;28;20208;-74
2023/09/21 05:15:48;;;;;;;3.30;2.50;;;;;;;17.13;100.00;96962.16;5055474;28;20205;-74
2023/09/21 05:18:16;;;;;;;3.43;2.47;;;;;;;17.00;100.00;96952.13;5055796;28;20228;-74
2023/09/21 05:20:45;;;;;;;3.40;2.90;;;;;;;17.02;100.00;96947.28;5055982;28;20200;-74
2023/09/21 05:23:11;;;;;;;5.93;2.83;;;;;;;17.05;100.00;96945.91;5055996;28;20575;-74
2023/09/21 05:25:38;;;;;;;3.63;2.67;;;;;;;17.08;100.00;96946.13;5055573;28;20205;-74
2023/09/21 05:28:05;;;;;;;5.43;3.00;;;;;;;17.14;100.00;96947.66;5055534;28;20233;-74
2023/09/21 05:30:32;;;;;;;3.13;2.77;;;;;;;17.14;100.00;96950.34;5055738;28;20229;-74
2023/09/21 05:33:00;;;;;;;3.30;2.93;;;;;;;17.18;100.00;96954.03;5055359;28;20206;-74
2023/09/21 05:35:27;;;;;;;4.50;3.03;;;;;;;17.16;100.00;96953.53;5054816;28;20285;-74
2023/09/21 05:37:54;;;;;;;6.03;3.70;;;;;;;17.22;100.00;96952.38;5055249;28;20225;-74
2023/09/21 05:40:21;;;;;;;5.03;3.53;;;;;;;17.23;100.00;96953.97;5055288;28;20205;-74
2023/09/21 05:42:47;;;;;;;4.40;3.47;;;;;;;17.23;100.00;96951.28;5055304;28;20217;-74
2023/09/21 05:45:14;;;;;;;4.10;3.60;;;;;;;17.23;100.00;96948.63;5055327;28;20201;-74
2023/09/21 05:47:40;;;;;;;4.13;3.73;;;;;;;17.28;100.00;96947.75;5055065;28;20235;-74
2023/09/21 05:50:08;;;;;;;4.40;3.20;;;;;;;17.35;100.00;96940.94;5054999;28;20237;-74
2023/09/21 05:52:35;;;;;;;2.83;2.60;;;;;;;17.33;100.00;96940.41;5054941;28;20209;-74
2023/09/21 05:55:02;;;;;;;5.07;3.10;;;;;;;17.38;100.00;96923.44;5056273;28;20201;-74
2023/09/21 05:57:29;;;;;;;3.90;3.27;;;;;;;17.40;100.00;96938.22;5054770;28;20586;-74
2023/09/21 05:59:55;;;;;;;4.00;3.27;;;;;;;17.38;100.00;96928.81;5055524;28;20193;-74
2023/09/21 06:02:23;;;;;;;5.83;3.80;;;;;;;17.38;100.00;96932.28;5054904;28;20206;-74
2023/09/21 06:04:50;;;;;;;4.37;3.13;;;;;;;17.30;100.00;96934.84;5055128;28;20293;-74
2023/09/21 06:07:16;;;;;;;5.27;3.10;;;;;;;17.31;100.00;96934.56;5055037;28;20229;-74
2023/09/21 06:09:43;;;;;;;5.87;3.37;;;;;;;17.38;100.00;96948.41;5054296;28;20625;-74
2023/09/21 06:12:10;;;;;;;6.67;3.57;;;;;;;17.39;100.00;96935.78;5055021;28;20346;-74
2023/09/21 06:14:37;;;;;;;5.17;3.73;;;;;;;17.45;100.00;96932.78;5055126;28;20592;-74
2023/09/21 06:17:06;;;;;;;4.33;3.30;;;;;;;17.40;100.00;96932.84;5054337;28;20300;-74
2023/09/21 06:19:33;;;;;;;6.80;3.60;;;;;;;17.40;100.00;96932.84;5054475;28;20552;-74
2023/09/21 06:22:00;;;;;;;4.40;2.87;;;;;;;17.47;100.00;96938.66;5054602;28;20197;-74
2023/09/21 06:24:26;;;;;;;7.30;3.23;;;;;;;17.45;100.00;96926.59;5054427;28;20251;-75
2023/09/21 06:26:53;;;;;;;5.20;3.10;;;;;;;17.51;100.00;96920.88;5054303;28;20690;-74
2023/09/21 06:29:22;;;;;;;4.73;3.20;;;;;;;17.50;100.00;96921.97;5054292;28;20226;-74
2023/09/21 06:31:48;;;;;;;6.50;2.87;;;;;;;17.51;100.00;96930.81;5054188;28;20366;-75
2023/09/21 06:34:21;;;;;;;8.13;3.30;;;;;;;17.54;100.00;96932.91;5054163;28;20220;-74
2023/09/21 06:36:47;;;;;;;6.23;3.60;;;;;;;17.66;100.00;96935.97;5054506;28;20189;-74
2023/09/21 06:39:16;;;;;;;3.80;3.40;;;;;;;17.63;100.00;96923.13;5054291;28;20235;-74
2023/09/21 06:41:44;;;;;;;6.93;3.60;;;;;;;17.67;100.00;96924.13;5054226;28;20201;-74
2023/09/21 06:44:10;;;;;;;6.40;3.50;;;;;;;17.69;100.00;96921.97;5053777;28;20714;-74
2023/09/21 06:46:37;;;;;;;4.93;2.83;;;;;;;17.70;100.00;96921.69;5053853;28;20201;-74
2023/09/21 06:49:04;;;;;;;6.37;3.20;;;;;;;17.75;100.00;96924.28;5054288;28;20225;-74
2023/09/21 06:51:31;;;;;;;4.00;3.30;;;;;;;17.74;100.00;96928.06;5054038;28;20221;-74
2023/09/21 06:54:00;;;;;;;4.53;2.90;;;;;;;17.82;100.00;96932.78;5053898;28;20205;-74
2023/09/21 06:56:31;;;;;;;6.20;3.30;;;;;;;17.83;100.00;96937.06;5054255;28;20211;-74
2023/09/21 06:58:58;;;;;;;3.93;3.10;;;;;;;17.88;100.00;96937.00;5053982;28;20604;-74
2023/09/21 07:01:26;;;;;;;4.63;2.80;;;;;;;17.87;100.00;96937.28;5054136;28;20201;-74
2023/09/21 07:03:52;;;;;;;5.83;3.00;;;;;;;17.87;100.00;96930.00;5053693;28;20209;-74
2023/09/21 07:06:20;;;;;;;4.63;3.20;;;;;;;17.99;100.00;96932.25;5053630;28;20745;-74
2023/09/21 07:08:47;;;;;;;6.40;3.17;;;;;;;18.07;100.00;96931.59;5054118;28;20297;-74
2023/09/21 07:11:19;;;;;;;3.43;2.47;;;;;;;18.13;100.00;96930.41;5053943;28;20221;-74
2023/09/21 07:13:46;;;;;;;5.97;3.10;;;;;;;18.17;100.00;96926.84;5053864;28;20296;-74
2023/09/21 07:16:12;;;;;;;5.03;3.50;;;;;;;18.24;100.00;96931.88;5054427;28;20216;-74
2023/09/21 07:18:39;;;;;;;4.93;2.90;;;;;;;18.32;100.00;96929.28;5053249;28;20630;-74
2023/09/21 07:21:05;;;;;;;6.60;4.17;;;;;;;18.42;100.00;96933.75;5053613;28;20248;-74
2023/09/21 07:23:32;;;;;;;4.67;3.47;;;;;;;18.54;100.00;96926.78;5053731;28;20205;-74
2023/09/21 07:25:59;;;;;;;4.37;3.30;;;;;;;18.63;100.00;96924.19;5053534;28;20201;-74
2023/09/21 07:28:25;;;;;;;6.27;3.10;;;;;;;18.69;100.00;96917.63;5053443;28;20251;-74
2023/09/21 07:30:52;;;;;;;5.53;3.30;;;;;;;18.78;100.00;96927.41;5053487;28;20236;-74
2023/09/21 07:33:20;;;;;;;5.70;3.50;;;;;;;18.89;100.00;96918.06;5053587;28;20210;-74
2023/09/21 07:35:47;;;;;;;4.13;3.73;;;;;;;18.97;100.00;96909.28;5053440;28;20213;-74
2023/09/21 07:38:14;;;;;;;5.33;3.70;;;;;;;19.04;100.00;96920.44;5053252;28;20229;-74
2023/09/21 07:40:41;;;;;;;5.00;3.13;;;;;;;19.10;100.00;96919.22;5053364;28;20212;-74
2023/09/21 07:43:07;;;;;;;3.30;3.00;;;;;;;19.08;100.00;96910.66;5053467;28;20205;-74
2023/09/21 07:45:34;;;;;;;3.83;2.80;;;;;;;19.06;100.00;96899.41;5053221;28;20201;-74
2023/09/21 07:48:00;;;;;;;5.80;2.90;;;;;;;19.10;100.00;96908.44;5053343;28;20229;-74
2023/09/21 07:50:29;;;;;;;6.33;3.30;;;;;;;19.08;100.00;96899.06;5053204;28;20247;-74
2023/09/21 07:52:56;;;;;;;4.67;2.97;;;;;;;19.13;100.00;96889.00;5052661;28;20205;-74
2023/09/21 07:55:22;;;;;;;6.13;3.03;;;;;;;19.21;100.00;96884.78;5052936;28;20219;-74
2023/09/21 07:57:50;;;;;;;6.60;3.20;;;;;;;19.18;100.00;96878.13;5052088;28;20233;-74
2023/09/21 08:00:17;;;;;;;4.40;3.23;;;;;;;19.28;100.00;96874.44;5053268;28;20199;-74
2023/09/21 08:02:43;;;;;;;5.87;3.47;;;;;;;19.30;100.00;96875.75;5053223;28;20246;-74
2023/09/21 08:05:10;;;;;;;5.03;3.63;;;;;;;19.29;100.00;96870.66;5052900;28;20572;-74
2023/09/21 08:07:37;;;;;;;5.23;3.47;;;;;;;19.31;100.00;96871.13;5052969;28;20278;-74
2023/09/21 08:10:04;;;;;;;8.63;3.87;;;;;;;19.40;100.00;96867.44;5053051;28;20215;-74
2023/09/21 08:12:31;;;;;;;9.13;3.50;;;;;;;19.60;100.00;96861.56;5053084;28;20228;-74
2023/09/21 08:14:59;;;;;;;3.70;2.83;;;;;;;19.92;100.00;96855.16;5053022;28;20204;-74
2023/09/21 08:17:26;;;;;;;7.73;3.50;;;;;;;20.11;100.00;96855.00;5053065;28;20225;-74
2023/09/21 08:19:53;;;;;;;4.70;3.47;;;;;;;20.35;100.00;96863.56;5053139;28;20205;-74
2023/09/21 08:22:19;;;;;;;6.53;3.33;;;;;;;20.51;100.00;96862.03;5053160;28;20267;-74
2023/09/21 08:24:45;;;;;;;3.43;3.00;;;;;;;20.74;100.00;96858.16;5053437;28;20255;-74
2023/09/21 08:27:12;;;;;;;4.27;2.80;;;;;;;20.66;100.00;96853.53;5052751;28;20201;-74
2023/09/21 08:29:39;;;;;;;6.40;2.90;;;;;;;20.69;100.00;96861.00;5053001;28;20205;-74
2023/09/21 08:32:06;;;;;;;5.07;3.43;;;;;;;20.77;100.00;96866.47;5052969;28;20267;-74
2023/09/21 08:34:33;;;;;;;5.80;3.37;;;;;;;20.84;100.00;96866.78;5052694;28;20262;-74
2023/09/21 08:37:00;;;;;;;6.30;3.10;;;;;;;20.83;100.00;96859.81;5052458;28;20209;-74
2023/09/21 08:39:26;;;;;;;5.57;3.47;;;;;;;20.89;100.00;96857.75;5052463;28;20548;-74
2023/09/21 08:41:53;;;;;;;6.23;3.73;;;;;;;20.96;100.00;96852.72;5052507;28;20206;-74
2023/09/21 08:44:19;;;;;;;5.57;3.53;;;;;;;21.04;100.00;96855.47;5052432;28;20202;-74
2023/09/21 08:46:51;;;;;;;5.07;3.50;;;;;;;21.18;100.00;96852.63;5052500;28;20210;-74
2023/09/21 08:49:18;;;;;;;6.77;3.80;;;;;;;21.37;100.00;96853.91;5052473;28;20225;-74
2023/09/21 08:51:45;;;;;;;5.57;3.23;;;;;;;21.65;100.00;96857.09;5052029;28;20696;-74
2023/09/21 08:54:13;;;;;;;3.30;2.45;;;;;;;21.92;99.23;96865.72;5052425;28;20209;-74
2023/09/21 08:56:40;;;;;;;3.53;2.85;;;;;;;22.08;94.76;96858.72;5052045;28;20691;-74
2023/09/21 08:59:09;;;;;;;4.93;3.00;;;;;;;22.15;97.62;96871.78;5051920;28;20272;-74
2023/09/21 09:01:37;;;;;;;3.95;2.40;;;;;;;22.38;96.43;96865.81;5052318;28;20237;-74
2023/09/21 09:04:04;;;;;;;5.57;3.22;;;;;;;22.32;93.25;96861.69;5052626;28;20213;-74
2023/09/21 09:06:31;;;;;;;5.47;3.20;;;;;;;22.31;91.73;96864.72;5052540;28;20251;-74
2023/09/21 09:08:58;;;;;;;7.15;2.63;;;;;;;22.62;92.73;96868.00;5054846;28;20591;-74
2023/09/21 09:11:34;;;;;;;4.25;2.65;;;;;;;22.62;92.74;96859.88;5055504;28;20236;-74
2023/09/21 09:14:01;;;;;;;4.10;2.80;;;;;;;22.65;93.97;96867.38;5056007;28;20550;-74
2023/09/21 09:16:31;;;;;;;4.13;2.83;;;;;;;22.79;90.96;96859.81;5056209;28;20295;-73
2023/09/21 09:19:00;;;;;;;3.97;2.85;;;;;;;22.65;89.73;96853.84;5055547;28;20574;-74
2023/09/21 09:21:27;;;;;;;5.88;2.83;;;;;;;22.83;89.36;96837.16;5055507;28;20606;-74
2023/09/21 09:23:53;;;;;;;3.15;2.60;;;;;;;22.97;89.24;96834.22;5055494;28;20656;-74
2023/09/21 09:26:20;;;;;;;4.95;3.10;;;;;;;23.10;87.98;96819.63;5055558;28;20204;-74
2023/09/21 09:28:46;;;;;;;3.35;2.47;;;;;;;23.33;88.01;96812.81;5055671;28;20231;-74
2023/09/21 09:31:12;;;;;;;6.22;2.38;;;;;;;23.33;85.76;96810.88;5055653;28;20225;-74
2023/09/21 09:33:39;;;;;;;7.70;2.70;;;;;;;23.32;87.16;96812.03;5055782;28;20205;-74
2023/09/21 09:36:06;;;;;;;3.60;2.55;;;;;;;23.38;86.32;96804.50;5055256;28;20205;-74
2023/09/21 09:38:37;;;;;;;4.75;2.38;;;;;;;23.29;83.43;96803.75;5055575;28;20225;-74
2023/09/21 09:41:05;;;;;;;2.83;2.20;;;;;;;23.39;85.78;96797.94;5055718;28;20200;-74
2023/09/21 09:43:32;;;;;;;2.33;2.13;;;;;;;;;;5054989;28;20216;-74
2023/09/21 09:46:03;;;;;;;4.85;3.13;;;;;;;23.45;85.09;96800.13;5055498;28;20201;-75
2023/09/21 09:48:33;;;;;;;4.47;2.88;;;;;;;23.59;85.72;96802.56;5055164;28;20718;-74
2023/09/21 09:51:09;;;;;;;2.60;2.40;;;;;;;23.66;86.83;96803.59;5037969;28;20301;-74
2023/09/21 09:53:37;;;;;;;3.00;2.70;;;;;;;23.75;86.97;96804.31;5055363;28;20189;-74
2023/09/21 09:56:08;;;;;;;2.95;2.40;;;;;;;23.74;85.39;96801.97;5054660;28;20225;-74
2023/09/21 09:58:37;;;;;;;4.43;2.42;;;;;;;23.88;86.62;96791.63;5055020;28;20245;-74
2023/09/21 10:01:07;;;;;;;5.13;2.80;;;;;;;23.72;85.06;96796.06;5055276;28;20201;-74
2023/09/21 10:03:35;;;;;;;4.15;2.78;;;;;;;23.79;85.74;96788.19;5055176;28;20190;-74
2023/09/21 10:06:02;;;;;;;5.05;2.90;;;;;;;24.10;82.97;96773.03;5055561;28;20233;-74
2023/09/21 10:08:29;;;;;;;5.55;2.83;;;;;;;24.16;80.61;96779.06;5054598;28;20577;-74
2023/09/21 10:10:58;;;;;;;5.97;2.90;;;;;;;24.00;80.52;96773.47;5054748;28;20717;-74
2023/09/21 10:13:27;;;;;;;6.68;2.97;;;;;;;24.12;80.47;96770.78;5054757;28;20213;-74
2023/09/21 10:16:04;;;;;;;4.90;2.80;;;;;;;24.10;80.24;96761.41;5054756;28;20217;-74
2023/09/21 10:18:35;;;;;;;6.88;2.90;;;;;;;24.22;79.25;96758.69;5054645;28;20272;-74
2023/09/21 10:21:22;;;;;;;4.18;2.63;;;;;;;24.05;80.02;96761.59;5053952;28;20231;-74
2023/09/21 10:24:18;;;;;;;4.57;2.28;;;;;;;23.90;79.20;96762.22;5054907;28;20197;-74
2023/09/21 10:26:53;;;;;;;4.35;3.60;;;;;;;23.90;79.27;96752.19;5033749;28;20213;-74
2023/09/21 10:29:28;;;;;;;3.58;2.50;;;;;;;24.01;77.64;96763.41;5054221;28;20794;-74
2023/09/21 10:31:57;;;;;;;4.97;2.25;;;;;;;24.09;77.23;96755.16;5054401;28;20752;-74
2023/09/21 10:34:26;;;;;;;4.28;2.45;;;;;;;24.09;79.14;96746.22;5054685;28;20532;-74
2023/09/21 10:37:01;;;;;;;6.97;3.03;;;;;;;24.12;76.66;96742.81;5054700;28;20206;-74
2023/09/21 10:39:31;;;;;;;4.75;2.50;;;;;;;24.46;76.02;96737.00;5054683;28;20193;-74
2023/09/21 10:42:06;;;;;;;4.85;2.08;;;;;;;24.59;75.08;96728.53;5054063;28;20233;-74
2023/09/21 10:45:00;;;;;;;3.60;2.75;;;;;;;24.52;73.81;96724.75;5053367;28;20794;-74
2023/09/21 10:47:29;;;;;;;4.13;2.05;;;;;;;24.70;73.36;96723.44;5054102;28;20597;-74
2023/09/21 10:49:57;;;;;;;3.13;2.22;;;;;;;24.63;73.09;96720.47;5054260;28;20262;-74
2023/09/21 10:52:26;;;;;;;2.47;1.90;;;;;;;24.66;72.38;96719.81;5054188;28;20231;-74
2023/09/21 10:54:53;;;;;;;3.60;2.20;;;;;;;24.78;70.88;96714.38;5054008;28;20741;-74
2023/09/21 10:57:38;;;;;;;3.05;2.13;;;;;;;24.73;69.68;96703.69;5054027;28;20572;-75
2023/09/21 11:00:07;;;;;;;3.47;1.85;;;;;;;24.52;71.03;96708.47;5054087;28;20275;-74
2023/09/21 11:02:36;;;;;;;3.83;2.08;;;;;;;24.65;72.50;96710.84;5053707;28;20399;-74
2023/09/21 11:05:03;;;;;;;2.70;1.75;;;;;;;24.77;67.05;96694.53;5053987;28;20208;-74
2023/09/21 11:07:30;;;;;;;3.17;1.70;;;;;;;24.85;67.04;96701.78;5054441;28;20261;-74
2023/09/21 11:09:57;;;;;;;1.70;1.58;;;;;;;24.82;67.05;96707.09;5054174;28;20212;-74
2023/09/21 11:12:24;;;;;;;2.42;1.67;;;;;;;24.87;67.02;96698.72;5054302;28;20248;-74
2023/09/21 11:14:50;;;;;;;3.30;1.90;;;;;;;25.03;65.54;96692.22;5054318;28;20211;-74
2023/09/21 11:17:17;;;;;;;3.08;1.80;;;;;;;25.07;64.61;96692.31;5054210;28;20315;-74
2023/09/21 11:19:45;;;;;;;1.73;1.50;;;;;;;25.03;64.27;96681.34;5054220;28;20212;-74
2023/09/21 11:22:15;;;;;;;4.15;1.60;;;;;;;25.07;64.67;96681.44;5054068;28;20201;-74
2023/09/21 11:24:42;;;;;;;2.33;1.63;;;;;;;25.04;67.60;96677.47;5054200;28;20211;-74
2023/09/21 11:27:14;;;;;;;1.63;1.52;;;;;;;25.03;65.41;96677.81;5053754;28;20664;-75
2023/09/21 11:29:43;;;;;;;4.47;3.95;;;;;;;25.04;64.74;96677.47;5053747;28;20556;-74
2023/09/21 11:32:18;;;;;;;2.03;1.60;;;;;;;24.85;63.82;96671.06;5053382;28;20231;-75